Weather at Moorea Temae Airport

Public forecast

Using degrees Celsius for public forecast. Weather courtesy of forecast.io.

Closest aviation weather report (METAR) to Moorea Temae Airport

Closest report is Faa'a International Airport, 9.7 nm (17.9 km) ESE.

2024/05/28 03:00 (retrieved 19 minutes ago)

NTAA 280300Z 19007KT 9999 FEW026 SCT260 28/21 Q1013 WS R22 NOSIG

Closest aviation forecast (TAF) to Moorea Temae Airport

Forecast is more than 12 hours old.

Closest forecast is MarĂ© Airport, 2,393.6 nm (4,433.0 km) WSW.

2024/05/26 15:00 Ammendment (retrieved 2 days ago)

TAF AMD NWWR 260500Z 2615/2706 CNL